sensor_id;sensor_type;location;lat;lon;timestamp;temperature;humidity
7014;DHT22;3547;50.774;12.918;2023-04-01T00:00:22;8.00;99.90
7014;DHT22;3547;50.774;12.918;2023-04-01T00:02:49;8.00;99.90
7014;DHT22;3547;50.774;12.918;2023-04-01T00:05:15;7.90;14.20
7014;DHT22;3547;50.774;12.918;2023-04-01T00:07:43;8.00;55.90
7014;DHT22;3547;50.774;12.918;2023-04-01T00:10:11;8.00;37.30
7014;DHT22;3547;50.774;12.918;2023-04-01T00:12:38;8.00;1.00
7014;DHT22;3547;50.774;12.918;2023-04-01T00:15:07;8.10;12.10
7014;DHT22;3547;50.774;12.918;2023-04-01T00:17:34;8.10;1.00
7014;DHT22;3547;50.774;12.918;2023-04-01T00:20:00;8.10;1.00
7014;DHT22;3547;50.774;12.918;2023-04-01T00:22:27;8.10;1.00
7014;DHT22;3547;50.774;12.918;2023-04-01T00:24:53;8.10;1.00
7014;DHT22;3547;50.774;12.918;2023-04-01T00:27:20;8.10;1.00
7014;DHT22;3547;50.774;12.918;2023-04-01T00:29:47;8.20;1.00
7014;DHT22;3547;50.774;12.918;2023-04-01T00:32:13;8.20;1.00
7014;DHT22;3547;50.774;12.918;2023-04-01T00:34:40;8.20;1.00
7014;DHT22;3547;50.774;12.918;2023-04-01T00:37:07;8.20;1.00
7014;DHT22;3547;50.774;12.918;2023-04-01T00:39:34;8.20;1.00
7014;DHT22;3547;50.774;12.918;2023-04-01T00:42:01;8.10;1.00
7014;DHT22;3547;50.774;12.918;2023-04-01T00:44:33;8.10;99.90
7014;DHT22;3547;50.774;12.918;2023-04-01T00:47:00;8.10;99.90
7014;DHT22;3547;50.774;12.918;2023-04-01T00:49:42;8.20;99.90
7014;DHT22;3547;50.774;12.918;2023-04-01T00:52:13;8.20;99.90
7014;DHT22;3547;50.774;12.918;2023-04-01T00:54:41;8.20;99.90
7014;DHT22;3547;50.774;12.918;2023-04-01T00:57:20;8.20;99.90
7014;DHT22;3547;50.774;12.918;2023-04-01T00:59:49;8.20;99.90
7014;DHT22;3547;50.774;12.918;2023-04-01T01:02:19;8.20;99.90
7014;DHT22;3547;50.774;12.918;2023-04-01T01:04:45;8.20;99.90
7014;DHT22;3547;50.774;12.918;2023-04-01T01:18:24;8.10;99.90
7014;DHT22;3547;50.774;12.918;2023-04-01T01:21:30;8.10;99.90
7014;DHT22;3547;50.774;12.918;2023-04-01T01:24:28;8.10;99.90
7014;DHT22;3547;50.774;12.918;2023-04-01T01:35:31;8.10;99.90
7014;DHT22;3547;50.774;12.918;2023-04-01T01:38:14;8.10;99.90
7014;DHT22;3547;50.774;12.918;2023-04-01T01:40:45;8.10;99.90
7014;DHT22;3547;50.774;12.918;2023-04-01T01:43:15;8.10;99.90
7014;DHT22;3547;50.774;12.918;2023-04-01T01:45:47;8.10;99.90
7014;DHT22;3547;50.774;12.918;2023-04-01T01:48:15;8.00;99.90
7014;DHT22;3547;50.774;12.918;2023-04-01T01:50:44;8.00;99.90
7014;DHT22;3547;50.774;12.918;2023-04-01T01:53:12;8.00;99.90
7014;DHT22;3547;50.774;12.918;2023-04-01T01:55:42;7.90;99.90
7014;DHT22;3547;50.774;12.918;2023-04-01T02:00:56;8.00;99.90
7014;DHT22;3547;50.774;12.918;2023-04-01T02:03:24;7.90;99.90
7014;DHT22;3547;50.774;12.918;2023-04-01T02:05:53;7.90;99.90
7014;DHT22;3547;50.774;12.918;2023-04-01T02:11:00;7.90;99.90
7014;DHT22;3547;50.774;12.918;2023-04-01T02:16:04;7.90;99.90
7014;DHT22;3547;50.774;12.918;2023-04-01T02:18:35;7.90;99.90
7014;DHT22;3547;50.774;12.918;2023-04-01T02:21:03;7.90;99.90
7014;DHT22;3547;50.774;12.918;2023-04-01T02:23:33;7.90;99.90
7014;DHT22;3547;50.774;12.918;2023-04-01T02:26:00;7.90;99.90
7014;DHT22;3547;50.774;12.918;2023-04-01T02:28:28;8.00;99.90
7014;DHT22;3547;50.774;12.918;2023-04-01T02:30:55;7.90;99.90
7014;DHT22;3547;50.774;12.918;2023-04-01T02:33:23;7.90;99.90
7014;DHT22;3547;50.774;12.918;2023-04-01T02:35:50;8.00;99.90
7014;DHT22;3547;50.774;12.918;2023-04-01T02:38:19;8.00;99.90
7014;DHT22;3547;50.774;12.918;2023-04-01T02:40:52;8.00;90.70
7014;DHT22;3547;50.774;12.918;2023-04-01T02:43:22;8.00;93.50
7014;DHT22;3547;50.774;12.918;2023-04-01T02:45:48;8.00;99.90
7014;DHT22;3547;50.774;12.918;2023-04-01T02:48:14;8.00;94.80
7014;DHT22;3547;50.774;12.918;2023-04-01T02:50:40;8.00;82.70
7014;DHT22;3547;50.774;12.918;2023-04-01T02:53:06;8.10;55.50
7014;DHT22;3547;50.774;12.918;2023-04-01T02:55:33;8.10;59.90
7014;DHT22;3547;50.774;12.918;2023-04-01T02:58:00;8.10;55.30
7014;DHT22;3547;50.774;12.918;2023-04-01T03:00:27;8.00;69.90
7014;DHT22;3547;50.774;12.918;2023-04-01T03:02:53;8.10;70.40
7014;DHT22;3547;50.774;12.918;2023-04-01T03:05:19;8.10;62.30
7014;DHT22;3547;50.774;12.918;2023-04-01T03:07:46;8.20;52.90
7014;DHT22;3547;50.774;12.918;2023-04-01T03:10:12;8.10;23.80
7014;DHT22;3547;50.774;12.918;2023-04-01T03:12:42;8.10;20.00
7014;DHT22;3547;50.774;12.918;2023-04-01T03:15:11;8.10;26.10
7014;DHT22;3547;50.774;12.918;2023-04-01T03:17:38;8.10;30.20
7014;DHT22;3547;50.774;12.918;2023-04-01T03:20:05;8.10;27.90
7014;DHT22;3547;50.774;12.918;2023-04-01T03:22:31;8.20;23.90
7014;DHT22;3547;50.774;12.918;2023-04-01T03:24:57;8.10;16.30
7014;DHT22;3547;50.774;12.918;2023-04-01T03:27:25;8.20;10.60
7014;DHT22;3547;50.774;12.918;2023-04-01T03:29:51;8.10;1.00
7014;DHT22;3547;50.774;12.918;2023-04-01T03:32:17;8.10;18.30
7014;DHT22;3547;50.774;12.918;2023-04-01T03:34:58;8.10;4.20
7014;DHT22;3547;50.774;12.918;2023-04-01T03:37:24;8.10;9.80
7014;DHT22;3547;50.774;12.918;2023-04-01T03:39:50;8.10;2.60
7014;DHT22;3547;50.774;12.918;2023-04-01T03:42:17;8.10;4.80
7014;DHT22;3547;50.774;12.918;2023-04-01T03:44:43;8.10;13.20
7014;DHT22;3547;50.774;12.918;2023-04-01T03:47:09;8.10;18.50
7014;DHT22;3547;50.774;12.918;2023-04-01T03:49:35;8.10;22.30
7014;DHT22;3547;50.774;12.918;2023-04-01T03:52:01;8.10;16.00
7014;DHT22;3547;50.774;12.918;2023-04-01T03:54:27;8.10;22.50
7014;DHT22;3547;50.774;12.918;2023-04-01T03:56:54;8.10;21.30
7014;DHT22;3547;50.774;12.918;2023-04-01T03:59:20;8.10;20.90
7014;DHT22;3547;50.774;12.918;2023-04-01T04:01:47;8.00;16.40
7014;DHT22;3547;50.774;12.918;2023-04-01T04:04:13;7.90;44.80
7014;DHT22;3547;50.774;12.918;2023-04-01T04:06:40;7.90;57.80
7014;DHT22;3547;50.774;12.918;2023-04-01T04:09:06;7.90;57.70
7014;DHT22;3547;50.774;12.918;2023-04-01T04:11:32;7.90;59.40
7014;DHT22;3547;50.774;12.918;2023-04-01T04:13:59;7.80;40.10
7014;DHT22;3547;50.774;12.918;2023-04-01T04:16:25;7.80;70.60
7014;DHT22;3547;50.774;12.918;2023-04-01T04:18:51;7.80;54.30
7014;DHT22;3547;50.774;12.918;2023-04-01T04:21:17;7.80;58.80
7014;DHT22;3547;50.774;12.918;2023-04-01T04:23:43;7.80;75.10
7014;DHT22;3547;50.774;12.918;2023-04-01T04:26:13;7.90;61.90
7014;DHT22;3547;50.774;12.918;2023-04-01T04:28:40;7.90;64.60
7014;DHT22;3547;50.774;12.918;2023-04-01T04:31:07;7.90;66.90
7014;DHT22;3547;50.774;12.918;2023-04-01T04:33:34;7.90;56.00
7014;DHT22;3547;50.774;12.918;2023-04-01T04:36:00;7.90;55.70
7014;DHT22;3547;50.774;12.918;2023-04-01T04:38:27;7.90;56.30
7014;DHT22;3547;50.774;12.918;2023-04-01T04:40:53;7.90;58.90
7014;DHT22;3547;50.774;12.918;2023-04-01T04:43:19;7.90;56.40
7014;DHT22;3547;50.774;12.918;2023-04-01T04:45:46;7.90;55.90
7014;DHT22;3547;50.774;12.918;2023-04-01T04:48:14;7.90;45.00
7014;DHT22;3547;50.774;12.918;2023-04-01T04:50:50;7.90;55.70
7014;DHT22;3547;50.774;12.918;2023-04-01T04:53:17;7.90;52.70
7014;DHT22;3547;50.774;12.918;2023-04-01T04:55:46;7.90;46.60
7014;DHT22;3547;50.774;12.918;2023-04-01T04:58:12;7.90;50.90
7014;DHT22;3547;50.774;12.918;2023-04-01T05:00:38;7.90;57.00
7014;DHT22;3547;50.774;12.918;2023-04-01T05:03:05;7.90;48.90
7014;DHT22;3547;50.774;12.918;2023-04-01T05:05:31;7.90;45.80
7014;DHT22;3547;50.774;12.918;2023-04-01T05:07:57;7.80;37.60
7014;DHT22;3547;50.774;12.918;2023-04-01T05:10:23;7.80;38.10
7014;DHT22;3547;50.774;12.918;2023-04-01T05:12:49;7.80;40.70
7014;DHT22;3547;50.774;12.918;2023-04-01T05:15:15;7.80;44.70
7014;DHT22;3547;50.774;12.918;2023-04-01T05:17:41;7.90;51.20
7014;DHT22;3547;50.774;12.918;2023-04-01T05:20:08;7.90;43.20
7014;DHT22;3547;50.774;12.918;2023-04-01T05:22:34;7.90;52.20
7014;DHT22;3547;50.774;12.918;2023-04-01T05:25:00;7.90;53.40
7014;DHT22;3547;50.774;12.918;2023-04-01T05:27:26;8.00;54.80
7014;DHT22;3547;50.774;12.918;2023-04-01T05:29:52;8.00;59.70
7014;DHT22;3547;50.774;12.918;2023-04-01T05:32:18;8.00;52.00
7014;DHT22;3547;50.774;12.918;2023-04-01T05:34:45;8.00;47.60
7014;DHT22;3547;50.774;12.918;2023-04-01T05:37:11;8.00;32.10
7014;DHT22;3547;50.774;12.918;2023-04-01T05:39:38;8.00;42.80
7014;DHT22;3547;50.774;12.918;2023-04-01T05:42:07;8.00;30.00
7014;DHT22;3547;50.774;12.918;2023-04-01T05:44:34;8.00;29.90
7014;DHT22;3547;50.774;12.918;2023-04-01T05:47:02;8.00;31.90
7014;DHT22;3547;50.774;12.918;2023-04-01T05:49:28;8.10;26.50
7014;DHT22;3547;50.774;12.918;2023-04-01T05:51:54;8.10;36.70
7014;DHT22;3547;50.774;12.918;2023-04-01T05:54:20;8.10;22.60
7014;DHT22;3547;50.774;12.918;2023-04-01T05:56:47;8.10;21.80
7014;DHT22;3547;50.774;12.918;2023-04-01T05:59:13;8.20;1.00
7014;DHT22;3547;50.774;12.918;2023-04-01T06:01:44;8.20;24.80
7014;DHT22;3547;50.774;12.918;2023-04-01T06:04:17;8.20;16.50
7014;DHT22;3547;50.774;12.918;2023-04-01T06:06:44;8.30;16.60
7014;DHT22;3547;50.774;12.918;2023-04-01T06:09:16;8.30;6.90
7014;DHT22;3547;50.774;12.918;2023-04-01T06:19:56;8.40;1.00
7014;DHT22;3547;50.774;12.918;2023-04-01T06:23:01;8.40;1.00
7014;DHT22;3547;50.774;12.918;2023-04-01T06:28:43;8.50;1.00
7014;DHT22;3547;50.774;12.918;2023-04-01T06:37:10;8.70;1.00
7014;DHT22;3547;50.774;12.918;2023-04-01T06:45:53;8.70;1.00
7014;DHT22;3547;50.774;12.918;2023-04-01T06:51:38;8.80;1.00
7014;DHT22;3547;50.774;12.918;2023-04-01T06:56:17;8.90;1.00
7014;DHT22;3547;50.774;12.918;2023-04-01T07:01:46;8.90;1.00
7014;DHT22;3547;50.774;12.918;2023-04-01T07:04:37;9.00;1.00
7014;DHT22;3547;50.774;12.918;2023-04-01T07:07:37;9.10;1.00
7014;DHT22;3547;50.774;12.918;2023-04-01T07:10:23;9.10;1.00
7014;DHT22;3547;50.774;12.918;2023-04-01T07:12:56;9.20;1.00
7014;DHT22;3547;50.774;12.918;2023-04-01T07:15:28;9.20;1.00
7014;DHT22;3547;50.774;12.918;2023-04-01T07:18:09;9.30;1.00
7014;DHT22;3547;50.774;12.918;2023-04-01T07:20:38;9.30;1.00
7014;DHT22;3547;50.774;12.918;2023-04-01T07:23:29;9.40;1.00
7014;DHT22;3547;50.774;12.918;2023-04-01T07:26:11;9.50;1.00
7014;DHT22;3547;50.774;12.918;2023-04-01T07:28:40;9.50;1.00
7014;DHT22;3547;50.774;12.918;2023-04-01T07:34:05;9.70;1.00
7014;DHT22;3547;50.774;12.918;2023-04-01T07:47:57;10.20;1.00
7014;DHT22;3547;50.774;12.918;2023-04-01T07:50:31;9.90;1.00
7014;DHT22;3547;50.774;12.918;2023-04-01T07:56:10;9.80;1.00
7014;DHT22;3547;50.774;12.918;2023-04-01T08:07:25;10.30;1.00
7014;DHT22;3547;50.774;12.918;2023-04-01T08:18:18;10.30;1.00
7014;DHT22;3547;50.774;12.918;2023-04-01T08:21:15;10.20;1.00
7014;DHT22;3547;50.774;12.918;2023-04-01T08:23:48;10.30;1.00
7014;DHT22;3547;50.774;12.918;2023-04-01T08:26:23;10.30;1.00
7014;DHT22;3547;50.774;12.918;2023-04-01T08:31:51;10.60;1.00
7014;DHT22;3547;50.774;12.918;2023-04-01T08:34:23;10.80;1.00
7014;DHT22;3547;50.774;12.918;2023-04-01T08:36:57;10.90;1.00
7014;DHT22;3547;50.774;12.918;2023-04-01T08:39:48;10.90;1.00
7014;DHT22;3547;50.774;12.918;2023-04-01T08:45:14;11.00;1.00
7014;DHT22;3547;50.774;12.918;2023-04-01T09:02:39;10.80;1.00
7014;DHT22;3547;50.774;12.918;2023-04-01T09:05:44;10.60;1.00
7014;DHT22;3547;50.774;12.918;2023-04-01T09:08:37;10.60;1.00
7014;DHT22;3547;50.774;12.918;2023-04-01T09:28:25;10.70;1.00
7014;DHT22;3547;50.774;12.918;2023-04-01T09:36:32;10.80;1.00
7014;DHT22;3547;50.774;12.918;2023-04-01T09:44:40;10.70;1.00
7014;DHT22;3547;50.774;12.918;2023-04-01T10:01:15;11.60;1.00
7014;DHT22;3547;50.774;12.918;2023-04-01T10:36:53;12.00;1.00
7014;DHT22;3547;50.774;12.918;2023-04-01T10:48:12;12.20;1.00
7014;DHT22;3547;50.774;12.918;2023-04-01T10:56:54;12.70;1.00
7014;DHT22;3547;50.774;12.918;2023-04-01T11:22:26;12.20;1.00
7014;DHT22;3547;50.774;12.918;2023-04-01T11:30:58;11.50;1.00
7014;DHT22;3547;50.774;12.918;2023-04-01T11:33:38;11.80;1.00
7014;DHT22;3547;50.774;12.918;2023-04-01T11:39:01;11.40;1.00
7014;DHT22;3547;50.774;12.918;2023-04-01T11:44:22;11.20;1.00
7014;DHT22;3547;50.774;12.918;2023-04-01T11:46:56;11.30;1.00
7014;DHT22;3547;50.774;12.918;2023-04-01T12:06:16;11.40;1.00
7014;DHT22;3547;50.774;12.918;2023-04-01T12:09:09;11.50;1.00
7014;DHT22;3547;50.774;12.918;2023-04-01T12:11:48;11.30;1.00
7014;DHT22;3547;50.774;12.918;2023-04-01T12:14:35;11.20;1.00
7014;DHT22;3547;50.774;12.918;2023-04-01T12:19:51;11.50;1.00
7014;DHT22;3547;50.774;12.918;2023-04-01T12:25:35;11.40;1.00
7014;DHT22;3547;50.774;12.918;2023-04-01T12:33:19;11.30;1.00
7014;DHT22;3547;50.774;12.918;2023-04-01T12:42:00;11.10;1.00
7014;DHT22;3547;50.774;12.918;2023-04-01T12:53:46;11.10;1.00
7014;DHT22;3547;50.774;12.918;2023-04-01T12:56:50;11.00;1.00
7014;DHT22;3547;50.774;12.918;2023-04-01T13:19:07;10.70;1.00
7014;DHT22;3547;50.774;12.918;2023-04-01T13:27:42;11.40;1.00
7014;DHT22;3547;50.774;12.918;2023-04-01T13:32:34;11.70;1.00
7014;DHT22;3547;50.774;12.918;2023-04-01T13:48:03;12.80;1.00
7014;DHT22;3547;50.774;12.918;2023-04-01T14:01:50;12.50;1.00
7014;DHT22;3547;50.774;12.918;2023-04-01T14:04:33;12.50;1.00
7014;DHT22;3547;50.774;12.918;2023-04-01T14:10:22;12.00;1.00
7014;DHT22;3547;50.774;12.918;2023-04-01T14:13:17;12.10;1.00
7014;DHT22;3547;50.774;12.918;2023-04-01T14:24:06;12.10;1.00
7014;DHT22;3547;50.774;12.918;2023-04-01T14:26:56;12.10;1.00
7014;DHT22;3547;50.774;12.918;2023-04-01T14:33:19;11.80;1.00
7014;DHT22;3547;50.774;12.918;2023-04-01T14:38:42;12.30;1.00
7014;DHT22;3547;50.774;12.918;2023-04-01T14:49:48;11.90;1.00
7014;DHT22;3547;50.774;12.918;2023-04-01T14:52:24;11.80;1.00
7014;DHT22;3547;50.774;12.918;2023-04-01T14:54:53;11.50;1.00
7014;DHT22;3547;50.774;12.918;2023-04-01T15:00:00;11.40;1.00
7014;DHT22;3547;50.774;12.918;2023-04-01T15:05:47;11.50;1.00
7014;DHT22;3547;50.774;12.918;2023-04-01T15:08:32;11.40;1.00
7014;DHT22;3547;50.774;12.918;2023-04-01T15:19:35;11.60;1.00
7014;DHT22;3547;50.774;12.918;2023-04-01T15:27:51;11.90;1.00
7014;DHT22;3547;50.774;12.918;2023-04-01T15:30:30;12.00;1.00
7014;DHT22;3547;50.774;12.918;2023-04-01T15:38:40;12.70;1.00
7014;DHT22;3547;50.774;12.918;2023-04-01T15:41:22;12.50;1.00
7014;DHT22;3547;50.774;12.918;2023-04-01T15:43:51;12.40;1.00
7014;DHT22;3547;50.774;12.918;2023-04-01T15:46:48;12.30;1.00
7014;DHT22;3547;50.774;12.918;2023-04-01T15:49:41;12.30;1.00
7014;DHT22;3547;50.774;12.918;2023-04-01T16:01:15;12.00;1.00
7014;DHT22;3547;50.774;12.918;2023-04-01T16:04:17;12.00;1.00
7014;DHT22;3547;50.774;12.918;2023-04-01T16:21:21;11.70;1.00
7014;DHT22;3547;50.774;12.918;2023-04-01T16:24:00;11.70;1.00
7014;DHT22;3547;50.774;12.918;2023-04-01T16:34:38;11.60;1.00
7014;DHT22;3547;50.774;12.918;2023-04-01T16:40:22;11.30;1.00
7014;DHT22;3547;50.774;12.918;2023-04-01T16:42:56;11.30;1.00
7014;DHT22;3547;50.774;12.918;2023-04-01T16:45:35;11.40;1.00
7014;DHT22;3547;50.774;12.918;2023-04-01T16:48:14;11.30;1.00
7014;DHT22;3547;50.774;12.918;2023-04-01T16:51:04;11.40;1.00
7014;DHT22;3547;50.774;12.918;2023-04-01T16:53:41;11.40;1.00
7014;DHT22;3547;50.774;12.918;2023-04-01T16:56:23;11.30;1.00
7014;DHT22;3547;50.774;12.918;2023-04-01T17:01:45;11.10;1.00
7014;DHT22;3547;50.774;12.918;2023-04-01T17:04:33;10.90;1.00
7014;DHT22;3547;50.774;12.918;2023-04-01T17:07:20;10.80;1.00
7014;DHT22;3547;50.774;12.918;2023-04-01T17:12:46;10.50;1.00
7014;DHT22;3547;50.774;12.918;2023-04-01T17:18:55;10.40;1.00
7014;DHT22;3547;50.774;12.918;2023-04-01T17:45:20;10.20;1.00
7014;DHT22;3547;50.774;12.918;2023-04-01T17:48:21;10.20;1.00
7014;DHT22;3547;50.774;12.918;2023-04-01T17:51:08;10.20;1.00
7014;DHT22;3547;50.774;12.918;2023-04-01T17:59:11;10.00;1.00
7014;DHT22;3547;50.774;12.918;2023-04-01T18:07:28;9.80;1.00
7014;DHT22;3547;50.774;12.918;2023-04-01T18:10:04;9.80;1.00
7014;DHT22;3547;50.774;12.918;2023-04-01T18:13:17;9.80;1.00
7014;DHT22;3547;50.774;12.918;2023-04-01T18:21:56;9.50;1.00
7014;DHT22;3547;50.774;12.918;2023-04-01T18:25:01;9.50;1.00
7014;DHT22;3547;50.774;12.918;2023-04-01T18:27:36;9.50;1.00
7014;DHT22;3547;50.774;12.918;2023-04-01T18:30:13;9.50;1.00
7014;DHT22;3547;50.774;12.918;2023-04-01T18:32:54;9.50;1.00
7014;DHT22;3547;50.774;12.918;2023-04-01T18:40:48;9.50;1.00
7014;DHT22;3547;50.774;12.918;2023-04-01T18:43:29;9.50;1.00
7014;DHT22;3547;50.774;12.918;2023-04-01T18:46:24;9.60;1.00
7014;DHT22;3547;50.774;12.918;2023-04-01T18:49:05;9.70;1.00
7014;DHT22;3547;50.774;12.918;2023-04-01T18:51:52;9.70;1.00
7014;DHT22;3547;50.774;12.918;2023-04-01T18:57:23;9.60;1.00
7014;DHT22;3547;50.774;12.918;2023-04-01T18:59:57;9.60;1.00
7014;DHT22;3547;50.774;12.918;2023-04-01T19:05:32;9.60;1.00
7014;DHT22;3547;50.774;12.918;2023-04-01T19:08:25;9.60;1.00
7014;DHT22;3547;50.774;12.918;2023-04-01T19:38:37;9.30;1.00
7014;DHT22;3547;50.774;12.918;2023-04-01T19:41:45;9.30;1.00
7014;DHT22;3547;50.774;12.918;2023-04-01T19:44:23;9.30;1.00
7014;DHT22;3547;50.774;12.918;2023-04-01T19:52:41;9.20;1.00
7014;DHT22;3547;50.774;12.918;2023-04-01T20:04:08;9.20;1.00
7014;DHT22;3547;50.774;12.918;2023-04-01T20:06:57;9.20;1.00
7014;DHT22;3547;50.774;12.918;2023-04-01T20:09:53;9.20;1.00
7014;DHT22;3547;50.774;12.918;2023-04-01T20:15:37;9.20;1.00
7014;DHT22;3547;50.774;12.918;2023-04-01T20:18:26;9.20;1.00
7014;DHT22;3547;50.774;12.918;2023-04-01T20:23:50;9.20;1.00
7014;DHT22;3547;50.774;12.918;2023-04-01T20:26:26;9.20;1.00
7014;DHT22;3547;50.774;12.918;2023-04-01T20:29:34;9.20;1.00
7014;DHT22;3547;50.774;12.918;2023-04-01T20:32:05;9.20;1.00
7014;DHT22;3547;50.774;12.918;2023-04-01T20:34:51;9.20;1.00
7014;DHT22;3547;50.774;12.918;2023-04-01T20:37:37;9.10;1.00
7014;DHT22;3547;50.774;12.918;2023-04-01T20:40:22;9.20;1.00
7014;DHT22;3547;50.774;12.918;2023-04-01T21:04:44;9.10;1.00
7014;DHT22;3547;50.774;12.918;2023-04-01T21:12:56;9.30;1.00
7014;DHT22;3547;50.774;12.918;2023-04-01T21:32:45;9.10;1.00
7014;DHT22;3547;50.774;12.918;2023-04-01T21:35:23;9.00;1.00
7014;DHT22;3547;50.774;12.918;2023-04-01T22:00:18;9.20;1.00
7014;DHT22;3547;50.774;12.918;2023-04-01T22:08:33;9.20;1.00
7014;DHT22;3547;50.774;12.918;2023-04-01T22:13:54;9.20;1.00
7014;DHT22;3547;50.774;12.918;2023-04-01T22:19:41;9.30;1.00
7014;DHT22;3547;50.774;12.918;2023-04-01T22:27:24;9.10;1.00
7014;DHT22;3547;50.774;12.918;2023-04-01T22:35:17;9.10;1.00
7014;DHT22;3547;50.774;12.918;2023-04-01T22:37:58;9.10;1.00
7014;DHT22;3547;50.774;12.918;2023-04-01T22:40:55;9.10;14.80
7014;DHT22;3547;50.774;12.918;2023-04-01T22:43:44;9.20;13.10
7014;DHT22;3547;50.774;12.918;2023-04-01T22:49:18;9.10;23.00
7014;DHT22;3547;50.774;12.918;2023-04-01T22:52:02;9.10;17.10
7014;DHT22;3547;50.774;12.918;2023-04-01T22:54:37;9.10;20.90
7014;DHT22;3547;50.774;12.918;2023-04-01T22:59:48;9.10;22.60
7014;DHT22;3547;50.774;12.918;2023-04-01T23:03:19;9.10;29.90
7014;DHT22;3547;50.774;12.918;2023-04-01T23:05:20;9.10;29.40
7014;DHT22;3547;50.774;12.918;2023-04-01T23:08:01;9.10;33.60
7014;DHT22;3547;50.774;12.918;2023-04-01T23:10:42;8.90;45.60
7014;DHT22;3547;50.774;12.918;2023-04-01T23:13:16;8.90;50.00
7014;DHT22;3547;50.774;12.918;2023-04-01T23:15:44;8.80;61.50
7014;DHT22;3547;50.774;12.918;2023-04-01T23:18:26;8.70;82.90
7014;DHT22;3547;50.774;12.918;2023-04-01T23:27:02;8.80;59.30
7014;DHT22;3547;50.774;12.918;2023-04-01T23:29:35;8.80;66.30
7014;DHT22;3547;50.774;12.918;2023-04-01T23:32:03;8.80;55.70
7014;DHT22;3547;50.774;12.918;2023-04-01T23:34:33;8.80;50.10
7014;DHT22;3547;50.774;12.918;2023-04-01T23:37:08;8.80;43.00
7014;DHT22;3547;50.774;12.918;2023-04-01T23:39:41;8.80;52.20
7014;DHT22;3547;50.774;12.918;2023-04-01T23:42:13;8.80;42.50
7014;DHT22;3547;50.774;12.918;2023-04-01T23:44:42;8.80;56.80
7014;DHT22;3547;50.774;12.918;2023-04-01T23:47:17;8.80;53.20
7014;DHT22;3547;50.774;12.918;2023-04-01T23:49:47;8.80;51.50
7014;DHT22;3547;50.774;12.918;2023-04-01T23:52:27;8.70;57.40
7014;DHT22;3547;50.774;12.918;2023-04-01T23:54:58;8.80;51.30
7014;DHT22;3547;50.774;12.918;2023-04-01T23:57:34;8.80;46.00
